Time;durP1;ratioP1;P1;durP2;ratioP2;P2;SDS_P1;SDS_P2;PMS_P1;PMS_P2;Temp;Humidity;BMP_temperature;BMP_pressure;BME280_temperature;BME280_humidity;BME280_pressure;Samples;Min_cycle;Max_cycle;Signal;HPM_P1;HPM_P2
2021/10/23 00:01:29;;;;;;;4.20;1.60;;;;;;;;;;5105775;28;24926;-60
2021/10/23 00:03:54;;;;;;;1.80;1.10;;;;;;;;;;5106541;28;24491;-60
2021/10/23 00:06:20;;;;;;;2.25;1.25;;;;;;;;;;5100397;28;24397;-60
2021/10/23 00:08:45;;;;;;;2.58;1.35;;;;;;;;;;5101132;28;24397;-59
2021/10/23 00:11:11;;;;;;;2.90;1.30;;;;;;;;;;5102583;28;24405;-60
2021/10/23 00:13:36;;;;;;;2.47;1.40;;;;;;;;;;5106790;28;24543;-59
2021/10/23 00:16:01;;;;;;;5.10;1.63;;;;;;;;;;5106503;28;24526;-59
2021/10/23 00:18:27;;;;;;;3.30;1.30;;;;;;;;;;5104100;28;24756;-59
2021/10/23 00:20:52;;;;;;;4.25;1.60;;;;;;;;;;5102545;27;24444;-60
2021/10/23 00:23:17;;;;;;;3.80;1.40;;;;;;;;;;5100430;28;24559;-61
2021/10/23 00:25:42;;;;;;;2.80;1.50;;;;;;;;;;5102847;28;24477;-60
2021/10/23 00:28:07;;;;;;;1.77;1.10;;;;;;;;;;5104467;28;24428;-59
2021/10/23 00:30:32;;;;;;;2.85;1.27;;;;;;;;;;5105850;28;24405;-60
2021/10/23 00:33:01;;;;;;;2.60;1.20;;;;;;;;;;5105859;28;24472;-59
2021/10/23 00:35:27;;;;;;;2.63;1.40;;;;;;;;;;5100136;28;24424;-60
2021/10/23 00:37:52;;;;;;;2.40;1.25;;;;;;;;;;5100645;28;24489;-60
2021/10/23 00:40:17;;;;;;;3.03;1.20;;;;;;;;;;5100316;28;24386;-60
2021/10/23 00:42:42;;;;;;;4.13;1.40;;;;;;;;;;5098004;28;24405;-60
2021/10/23 00:45:08;;;;;;;2.70;1.40;;;;;;;;;;5083767;28;24393;-59
2021/10/23 00:47:33;;;;;;;1.70;1.30;;;;;;;;;;5085315;28;24386;-59
2021/10/23 00:49:58;;;;;;;3.20;1.30;;;;;;;;;;5081681;28;24406;-58
2021/10/23 00:52:24;;;;;;;2.33;1.33;;;;;;;;;;5079510;28;24412;-58
2021/10/23 00:54:50;;;;;;;3.50;1.53;;;;;;;;;;5079608;28;24421;-58
2021/10/23 00:57:15;;;;;;;3.33;1.52;;;;;;;;;;5083333;28;24398;-59
2021/10/23 00:59:41;;;;;;;3.23;1.50;;;;;;;;;;5085001;28;24941;-59
2021/10/23 01:02:06;;;;;;;1.97;1.20;;;;;;;;;;5083496;28;24441;-60
2021/10/23 01:04:32;;;;;;;3.17;1.50;;;;;;;;;;5083227;28;24959;-60
2021/10/23 01:06:57;;;;;;;1.83;1.50;;;;;;;;;;5081285;28;24389;-60
2021/10/23 01:09:22;;;;;;;3.00;1.70;;;;;;;;;;5079333;28;24854;-60
2021/10/23 01:11:48;;;;;;;2.83;1.60;;;;;;;;;;5081161;28;24405;-60
2021/10/23 01:14:14;;;;;;;3.50;1.80;;;;;;;;;;5084519;28;24386;-59
2021/10/23 01:16:42;;;;;;;3.55;1.40;;;;;;;;;;5084530;28;24406;-59
2021/10/23 01:19:09;;;;;;;2.70;1.38;;;;;;;;;;5082384;28;24398;-59
2021/10/23 01:21:34;;;;;;;2.83;1.40;;;;;;;;;;5081043;28;24418;-60
2021/10/23 01:23:59;;;;;;;4.23;1.60;;;;;;;;;;5081005;28;24448;-60
2021/10/23 01:26:25;;;;;;;3.10;1.40;;;;;;;;;;5080935;28;24392;-59
2021/10/23 01:28:50;;;;;;;2.58;1.50;;;;;;;;;;5084711;28;24463;-59
2021/10/23 01:31:15;;;;;;;3.03;1.60;;;;;;;;;;5082500;28;24974;-59
2021/10/23 01:33:40;;;;;;;3.05;1.80;;;;;;;;;;5082407;28;24439;-59
2021/10/23 01:36:07;;;;;;;3.05;1.80;;;;;;;;;;5081301;28;24908;-60
2021/10/23 01:38:33;;;;;;;2.90;1.60;;;;;;;;;;5078563;28;24398;-59
2021/10/23 01:40:58;;;;;;;2.43;1.30;;;;;;;;;;5079018;28;24432;-60
2021/10/23 01:43:23;;;;;;;2.25;1.60;;;;;;;;;;5095535;28;24855;-59
2021/10/23 01:45:48;;;;;;;5.20;1.80;;;;;;;;;;5104963;28;24374;-60
2021/10/23 01:48:13;;;;;;;3.50;1.70;;;;;;;;;;5102473;28;24547;-59
2021/10/23 01:50:39;;;;;;;4.50;1.95;;;;;;;;;;5101129;28;24930;-60
2021/10/23 01:53:04;;;;;;;2.38;1.80;;;;;;;;;;5100680;28;24390;-60
2021/10/23 01:55:29;;;;;;;3.90;1.92;;;;;;;;;;5098838;28;24748;-59
2021/10/23 01:57:56;;;;;;;3.30;1.80;;;;;;;;;;5104788;28;24438;-59
2021/10/23 02:00:21;;;;;;;3.00;1.80;;;;;;;;;;5102527;28;24597;-59
2021/10/23 02:02:46;;;;;;;3.92;1.98;;;;;;;;;;5104163;28;24935;-59
2021/10/23 02:05:11;;;;;;;2.20;1.50;;;;;;;;;;5098457;28;24381;-60
2021/10/23 02:07:36;;;;;;;3.40;2.00;;;;;;;;;;5100166;28;24467;-60
2021/10/23 02:10:03;;;;;;;3.87;1.97;;;;;;;;;;5101829;28;25003;-60
2021/10/23 02:12:28;;;;;;;3.83;1.80;;;;;;;;;;5102064;28;24409;-59
2021/10/23 02:14:53;;;;;;;4.78;1.90;;;;;;;;;;5104395;28;24505;-60
2021/10/23 02:17:18;;;;;;;6.60;2.30;;;;;;;;;;5102130;28;24398;-59
2021/10/23 02:19:43;;;;;;;2.50;1.50;;;;;;;;;;5102089;28;24884;-60
2021/10/23 02:22:08;;;;;;;3.17;1.40;;;;;;;;;;5100424;28;24495;-60
2021/10/23 02:24:34;;;;;;;4.30;1.80;;;;;;;;;;5098390;28;24412;-60
2021/10/23 02:26:59;;;;;;;3.05;1.80;;;;;;;;;;5100456;28;24443;-60
2021/10/23 02:29:24;;;;;;;2.90;1.70;;;;;;;;;;5103659;28;24389;-60
2021/10/23 02:31:49;;;;;;;3.47;1.80;;;;;;;;;;5104021;28;24437;-60
2021/10/23 02:34:14;;;;;;;4.73;1.90;;;;;;;;;;5101686;28;24414;-60
2021/10/23 02:36:40;;;;;;;3.97;1.97;;;;;;;;;;5100295;28;24482;-60
2021/10/23 02:39:05;;;;;;;5.47;1.90;;;;;;;;;;5099915;28;24392;-60
2021/10/23 02:41:30;;;;;;;3.83;1.70;;;;;;;;;;5100222;28;24434;-60
2021/10/23 02:43:56;;;;;;;3.10;1.40;;;;;;;;;;5087829;28;24399;-60
2021/10/23 02:46:21;;;;;;;3.28;1.48;;;;;;;;;;5081632;28;24520;-60
2021/10/23 02:48:47;;;;;;;2.40;1.60;;;;;;;;;;5081313;28;24402;-61
2021/10/23 02:51:12;;;;;;;4.93;1.97;;;;;;;;;;5078833;28;24387;-61
2021/10/23 02:53:37;;;;;;;2.97;1.70;;;;;;;;;;5079694;28;24413;-61
2021/10/23 02:56:02;;;;;;;4.30;2.00;;;;;;;;;;5077773;28;24848;-60
2021/10/23 02:58:27;;;;;;;3.73;1.90;;;;;;;;;;5083204;28;24946;-60
2021/10/23 03:00:53;;;;;;;4.50;2.00;;;;;;;;;;5083433;28;24575;-60
2021/10/23 03:03:18;;;;;;;6.55;2.00;;;;;;;;;;5081248;28;24398;-61
2021/10/23 03:05:44;;;;;;;4.38;1.88;;;;;;;;;;5079576;28;25156;-60
2021/10/23 03:08:09;;;;;;;3.33;1.90;;;;;;;;;;5079868;28;24442;-60
2021/10/23 03:10:34;;;;;;;3.08;1.80;;;;;;;;;;5077819;28;24463;-60
2021/10/23 03:12:59;;;;;;;3.60;1.60;;;;;;;;;;5083071;28;24397;-60
2021/10/23 03:15:24;;;;;;;4.07;1.50;;;;;;;;;;5081447;28;24909;-60
2021/10/23 03:17:50;;;;;;;3.13;1.70;;;;;;;;;;5083050;28;24398;-60
2021/10/23 03:20:15;;;;;;;6.07;2.10;;;;;;;;;;5077354;28;24750;-60
2021/10/23 03:22:41;;;;;;;3.28;1.70;;;;;;;;;;5077842;28;24888;-60
2021/10/23 03:25:06;;;;;;;3.53;1.80;;;;;;;;;;5078101;28;24399;-60
2021/10/23 03:27:31;;;;;;;3.43;1.73;;;;;;;;;;5081210;28;25024;-60
2021/10/23 03:29:56;;;;;;;5.45;2.30;;;;;;;;;;5082997;28;24394;-60
2021/10/23 03:32:22;;;;;;;2.17;1.70;;;;;;;;;;5081169;28;24422;-60
2021/10/23 03:34:48;;;;;;;4.97;2.00;;;;;;;;;;5081108;28;25533;-60
2021/10/23 03:37:13;;;;;;;3.70;1.75;;;;;;;;;;5077346;28;24401;-61
2021/10/23 03:39:38;;;;;;;2.88;1.40;;;;;;;;;;5079405;28;24462;-61
2021/10/23 03:42:04;;;;;;;2.35;1.50;;;;;;;;;;5082737;28;24414;-58
2021/10/23 03:44:29;;;;;;;3.45;1.73;;;;;;;;;;5106868;28;24495;-59
2021/10/23 03:46:54;;;;;;;4.40;1.65;;;;;;;;;;5107198;28;24957;-60
2021/10/23 03:49:19;;;;;;;5.18;1.90;;;;;;;;;;5102722;28;24426;-59
2021/10/23 03:51:44;;;;;;;4.22;1.80;;;;;;;;;;5101012;28;24397;-60
2021/10/23 03:54:09;;;;;;;5.60;2.07;;;;;;;;;;5101181;28;24958;-59
2021/10/23 03:56:35;;;;;;;5.50;2.30;;;;;;;;;;5104854;28;24401;-59
2021/10/23 03:59:00;;;;;;;5.37;1.93;;;;;;;;;;5106759;28;25328;-59
2021/10/23 04:01:25;;;;;;;3.85;2.00;;;;;;;;;;5104605;28;25360;-59
2021/10/23 04:03:50;;;;;;;4.80;2.00;;;;;;;;;;5106555;28;24962;-59
2021/10/23 04:06:15;;;;;;;5.10;2.10;;;;;;;;;;5100930;28;24434;-59
2021/10/23 04:08:40;;;;;;;6.60;2.23;;;;;;;;;;5100913;28;24760;-59
2021/10/23 04:11:06;;;;;;;5.60;2.20;;;;;;;;;;5102441;28;24472;-59
2021/10/23 04:13:31;;;;;;;6.20;2.70;;;;;;;;;;5106335;28;24409;-59
2021/10/23 04:15:56;;;;;;;6.70;2.50;;;;;;;;;;5106438;28;24417;-59
2021/10/23 04:18:21;;;;;;;4.37;1.80;;;;;;;;;;5103973;28;24410;-60
2021/10/23 04:20:46;;;;;;;7.10;2.40;;;;;;;;;;5100219;28;24428;-60
2021/10/23 04:23:12;;;;;;;5.60;1.83;;;;;;;;;;5100652;28;24798;-60
2021/10/23 04:25:37;;;;;;;4.87;1.80;;;;;;;;;;5102460;28;24382;-60
2021/10/23 04:28:02;;;;;;;6.95;2.30;;;;;;;;;;5104243;28;24946;-60
2021/10/23 04:30:27;;;;;;;4.00;1.80;;;;;;;;;;5105744;28;24928;-60
2021/10/23 04:32:54;;;;;;;6.72;2.30;;;;;;;;;;5105239;28;22238;-59
2021/10/23 04:35:19;;;;;;;4.17;2.30;;;;;;;;;;5104035;27;24412;-60
2021/10/23 04:37:44;;;;;;;6.68;2.58;;;;;;;;;;5100492;28;24786;-59
2021/10/23 04:40:10;;;;;;;4.53;2.20;;;;;;;;;;5100464;28;24433;-59
2021/10/23 04:42:35;;;;;;;6.10;2.35;;;;;;;;;;5100767;28;24525;-60
2021/10/23 04:45:00;;;;;;;6.13;2.30;;;;;;;;;;5085439;28;24831;-59
2021/10/23 04:47:25;;;;;;;4.53;2.30;;;;;;;;;;5083284;28;24877;-60
2021/10/23 04:49:50;;;;;;;5.80;2.28;;;;;;;;;;5085206;28;24970;-60
2021/10/23 04:52:15;;;;;;;6.65;2.50;;;;;;;;;;5079627;28;24501;-60
2021/10/23 04:54:40;;;;;;;5.95;2.40;;;;;;;;;;5079441;28;24430;-60
2021/10/23 04:57:06;;;;;;;6.23;2.10;;;;;;;;;;5081531;28;24551;-60
2021/10/23 04:59:31;;;;;;;5.47;2.47;;;;;;;;;;5084793;28;24498;-60
2021/10/23 05:01:56;;;;;;;4.55;2.15;;;;;;;;;;5085011;28;25168;-60
2021/10/23 05:04:21;;;;;;;4.13;2.00;;;;;;;;;;5082953;28;24422;-60
2021/10/23 05:06:46;;;;;;;5.65;2.47;;;;;;;;;;5079455;28;24441;-59
2021/10/23 05:09:11;;;;;;;6.28;2.30;;;;;;;;;;5079431;28;24970;-60
2021/10/23 05:11:37;;;;;;;6.80;2.60;;;;;;;;;;5082976;28;24444;-59
2021/10/23 05:14:02;;;;;;;3.92;2.13;;;;;;;;;;5084619;28;24851;-60
2021/10/23 05:16:27;;;;;;;5.70;2.40;;;;;;;;;;5082927;28;24398;-60
2021/10/23 05:18:52;;;;;;;4.05;1.77;;;;;;;;;;5082933;28;24506;-59
2021/10/23 05:21:18;;;;;;;6.28;2.50;;;;;;;;;;5079177;28;24829;-60
2021/10/23 05:23:43;;;;;;;6.50;2.60;;;;;;;;;;5081033;28;24402;-60
2021/10/23 05:26:08;;;;;;;7.25;2.70;;;;;;;;;;5079365;28;25428;-59
2021/10/23 05:28:33;;;;;;;7.40;2.60;;;;;;;;;;5084664;28;24493;-59
2021/10/23 05:30:59;;;;;;;4.70;2.70;;;;;;;;;;5084452;28;24426;-59
2021/10/23 05:33:24;;;;;;;7.63;2.50;;;;;;;;;;5082351;28;24445;-59
2021/10/23 05:35:49;;;;;;;5.40;2.60;;;;;;;;;;5078928;28;24925;-60
2021/10/23 05:38:15;;;;;;;4.40;2.30;;;;;;;;;;5078787;28;24379;-59
2021/10/23 05:40:40;;;;;;;5.27;2.50;;;;;;;;;;5080646;28;24409;-61
2021/10/23 05:43:05;;;;;;;6.50;2.60;;;;;;;;;;5093186;28;24426;-61
2021/10/23 05:45:30;;;;;;;4.60;2.35;;;;;;;;;;5102539;28;24397;-60
2021/10/23 05:47:55;;;;;;;6.80;2.50;;;;;;;;;;5104281;28;24406;-60
2021/10/23 05:50:20;;;;;;;6.22;2.45;;;;;;;;;;5102980;28;24458;-60
2021/10/23 05:52:46;;;;;;;8.60;3.10;;;;;;;;;;5098909;28;24390;-60
2021/10/23 05:55:11;;;;;;;5.90;2.50;;;;;;;;;;5098825;27;24420;-60
2021/10/23 05:57:36;;;;;;;5.70;2.17;;;;;;;;;;5104584;28;24396;-60
2021/10/23 06:00:06;;;;;;;5.90;2.53;;;;;;;;;;5104550;28;24389;-60
2021/10/23 06:02:32;;;;;;;6.50;2.78;;;;;;;;;;5103252;28;24389;-60
2021/10/23 06:04:58;;;;;;;6.43;2.70;;;;;;;;;;5100269;28;24386;-60
2021/10/23 06:07:24;;;;;;;5.47;2.47;;;;;;;;;;5098543;28;24610;-60
2021/10/23 06:09:50;;;;;;;6.75;2.72;;;;;;;;;;5098921;28;24971;-60
2021/10/23 06:12:15;;;;;;;4.30;2.60;;;;;;;;;;5102311;28;24424;-60
2021/10/23 06:14:40;;;;;;;6.15;2.45;;;;;;;;;;5103929;28;24466;-60
2021/10/23 06:17:06;;;;;;;9.70;2.50;;;;;;;;;;5102123;28;24931;-59
2021/10/23 06:19:34;;;;;;;3.78;2.20;;;;;;;;;;5099848;28;24592;-60
2021/10/23 06:22:00;;;;;;;4.80;2.40;;;;;;;;;;5100348;28;24535;-60
2021/10/23 06:24:25;;;;;;;4.80;2.70;;;;;;;;;;5098098;28;24923;-60
2021/10/23 06:26:50;;;;;;;4.50;2.60;;;;;;;;;;5100723;28;24448;-59
2021/10/23 06:29:15;;;;;;;4.90;3.00;;;;;;;;;;5104259;28;24450;-60
2021/10/23 06:31:40;;;;;;;5.65;2.45;;;;;;;;;;5103891;28;24471;-60
2021/10/23 06:34:05;;;;;;;6.65;3.00;;;;;;;;;;5102281;28;24840;-60
2021/10/23 06:36:30;;;;;;;5.80;3.30;;;;;;;;;;5098307;28;24928;-59
2021/10/23 06:38:56;;;;;;;5.68;2.80;;;;;;;;;;5098478;28;24432;-59
2021/10/23 06:41:21;;;;;;;5.53;2.78;;;;;;;;;;5102317;28;25034;-59
2021/10/23 06:43:46;;;;;;;7.05;3.20;;;;;;;;;;5089263;28;24390;-60
2021/10/23 06:46:11;;;;;;;6.40;2.70;;;;;;;;;;5081444;28;24398;-59
2021/10/23 06:48:37;;;;;;;6.80;3.00;;;;;;;;;;5079550;28;24398;-60
2021/10/23 06:51:02;;;;;;;7.70;3.30;;;;;;;;;;5079717;28;24513;-60
2021/10/23 06:53:27;;;;;;;7.50;3.17;;;;;;;;;;5079523;28;24453;-59
2021/10/23 06:55:52;;;;;;;7.13;3.20;;;;;;;;;;5078091;28;24390;-60
2021/10/23 06:58:17;;;;;;;8.45;2.83;;;;;;;;;;5082932;28;24402;-60
2021/10/23 07:00:42;;;;;;;7.45;2.90;;;;;;;;;;5083210;28;24448;-60
2021/10/23 07:03:07;;;;;;;6.10;2.90;;;;;;;;;;5081262;28;24833;-60
2021/10/23 07:05:33;;;;;;;7.60;3.20;;;;;;;;;;5079274;28;24390;-60
2021/10/23 07:07:58;;;;;;;6.60;2.90;;;;;;;;;;5079738;28;24397;-59
2021/10/23 07:10:23;;;;;;;7.70;2.63;;;;;;;;;;5077374;28;24433;-60
2021/10/23 07:12:48;;;;;;;7.50;2.67;;;;;;;;;;5083149;28;24854;-59
2021/10/23 07:15:14;;;;;;;5.10;2.53;;;;;;;;;;5081790;28;24993;-60
2021/10/23 07:17:39;;;;;;;7.43;3.30;;;;;;;;;;5086781;28;24390;-59
2021/10/23 07:20:05;;;;;;;5.97;2.70;;;;;;;;;;5084927;28;25243;-60
2021/10/23 07:22:30;;;;;;;8.90;2.97;;;;;;;;;;5081382;28;24402;-60
2021/10/23 07:24:55;;;;;;;4.80;2.70;;;;;;;;;;5081398;28;24413;-60
2021/10/23 07:27:20;;;;;;;3.85;2.60;;;;;;;;;;5085070;28;24395;-60
2021/10/23 07:29:45;;;;;;;4.97;3.10;;;;;;;;;;5086625;28;24413;-60
2021/10/23 07:32:11;;;;;;;6.80;2.63;;;;;;;;;;5084500;28;24448;-60
2021/10/23 07:34:36;;;;;;;5.67;2.47;;;;;;;;;;5084669;28;24781;-60
2021/10/23 07:37:01;;;;;;;8.33;2.67;;;;;;;;;;5083031;28;24414;-60
2021/10/23 07:39:26;;;;;;;6.10;2.40;;;;;;;;;;5080928;28;24577;-60
2021/10/23 07:41:52;;;;;;;6.63;2.33;;;;;;;;;;5082939;28;24531;-60
2021/10/23 07:44:17;;;;;;;6.28;2.60;;;;;;;;;;5105485;28;24429;-60
2021/10/23 07:46:43;;;;;;;7.73;2.70;;;;;;;;;;5106792;27;24488;-60
2021/10/23 07:49:09;;;;;;;6.15;2.45;;;;;;;;;;5104973;28;24398;-61
2021/10/23 07:51:34;;;;;;;5.35;2.70;;;;;;;;;;5101133;28;24444;-60
2021/10/23 07:53:59;;;;;;;4.70;2.30;;;;;;;;;;5103148;28;24417;-61
2021/10/23 07:56:25;;;;;;;4.63;2.10;;;;;;;;;;5102695;28;24378;-59
2021/10/23 07:58:50;;;;;;;5.97;2.40;;;;;;;;;;5106732;28;24409;-59
2021/10/23 08:01:15;;;;;;;5.35;2.50;;;;;;;;;;5104830;28;24398;-59
2021/10/23 08:03:40;;;;;;;5.78;2.28;;;;;;;;;;5106543;27;24416;-59
2021/10/23 08:06:05;;;;;;;5.73;2.50;;;;;;;;;;5102597;28;24439;-61
2021/10/23 08:08:31;;;;;;;7.90;2.80;;;;;;;;;;5100552;28;24489;-60
2021/10/23 08:10:58;;;;;;;6.07;2.57;;;;;;;;;;5101243;28;24416;-60
2021/10/23 08:13:23;;;;;;;6.50;2.47;;;;;;;;;;5106094;28;24887;-59
2021/10/23 08:15:49;;;;;;;6.00;2.30;;;;;;;;;;5106042;28;24402;-59
2021/10/23 08:18:14;;;;;;;6.27;2.50;;;;;;;;;;5104205;28;24876;-60
2021/10/23 08:20:39;;;;;;;3.80;2.30;;;;;;;;;;5100348;28;24417;-60
2021/10/23 08:23:05;;;;;;;6.35;2.75;;;;;;;;;;5102029;28;24436;-60
2021/10/23 08:25:30;;;;;;;5.17;2.40;;;;;;;;;;5102277;28;24416;-60
2021/10/23 08:27:55;;;;;;;6.10;2.40;;;;;;;;;;5105486;28;24413;-60
2021/10/23 08:30:20;;;;;;;3.90;2.23;;;;;;;;;;5103811;28;24394;-60
2021/10/23 08:32:46;;;;;;;5.38;2.40;;;;;;;;;;5103546;28;24595;-60
2021/10/23 08:35:15;;;;;;;7.97;2.50;;;;;;;;;;5101257;28;24438;-60
2021/10/23 08:37:41;;;;;;;4.68;1.90;;;;;;;;;;5101891;28;24496;-59
2021/10/23 08:40:07;;;;;;;6.25;2.30;;;;;;;;;;5101874;28;24531;-60
2021/10/23 08:42:32;;;;;;;5.43;2.30;;;;;;;;;;5099176;28;24410;-60
2021/10/23 08:44:58;;;;;;;5.30;2.10;;;;;;;;;;5085436;28;24399;-60
2021/10/23 08:47:24;;;;;;;5.38;2.38;;;;;;;;;;5083194;28;24939;-60
2021/10/23 08:49:50;;;;;;;7.20;2.70;;;;;;;;;;5081346;28;24575;-60
2021/10/23 08:52:15;;;;;;;5.43;2.40;;;;;;;;;;5079530;28;24425;-60
2021/10/23 08:54:41;;;;;;;5.83;2.40;;;;;;;;;;5083261;28;24394;-60
2021/10/23 08:57:07;;;;;;;4.43;2.13;;;;;;;;;;5082886;28;24512;-61
2021/10/23 08:59:32;;;;;;;6.50;2.40;;;;;;;;;;5082407;28;24949;-61
2021/10/23 09:01:58;;;;;;;6.30;2.60;;;;;;;;;;5085204;28;24400;-60
2021/10/23 09:04:25;;;;;;;7.00;2.40;;;;;;;;;;5079311;28;24866;-60
2021/10/23 09:06:50;;;;;;;4.45;2.15;;;;;;;;;;5079220;28;24452;-60
2021/10/23 09:09:15;;;;;;;7.25;2.40;;;;;;;;;;5080968;28;24410;-60
2021/10/23 09:11:41;;;;;;;5.43;2.27;;;;;;;;;;5083038;28;24457;-61
2021/10/23 09:14:23;;;;;;;7.10;2.17;;;;;;;;;;5082495;28;24395;-60
2021/10/23 09:16:58;;;;;;;6.57;2.40;;;;;;;;;;5084125;28;24409;-60
2021/10/23 09:19:30;;;;;;;5.70;2.20;;;;;;;;;;5078615;28;25013;-61
2021/10/23 09:21:55;;;;;;;5.60;2.63;;;;;;;;;;5079276;28;24492;-60
2021/10/23 09:24:21;;;;;;;8.02;2.40;;;;;;;;;;5080655;28;24418;-61
2021/10/23 09:26:46;;;;;;;5.80;2.50;;;;;;;;;;5082098;28;24430;-61
2021/10/23 09:29:13;;;;;;;5.67;2.20;;;;;;;;;;5082726;28;24389;-61
2021/10/23 09:31:39;;;;;;;4.22;2.20;;;;;;;;;;5084092;28;24523;-60
2021/10/23 09:34:04;;;;;;;4.10;1.90;;;;;;;;;;5080643;28;24449;-60
2021/10/23 09:36:30;;;;;;;8.47;2.30;;;;;;;;;;5078746;28;24507;-60
2021/10/23 09:38:58;;;;;;;8.30;2.45;;;;;;;;;;5078102;28;24382;-60
2021/10/23 09:41:26;;;;;;;6.20;2.42;;;;;;;;;;5081781;28;24395;-60
2021/10/23 09:44:11;;;;;;;7.38;2.60;;;;;;;;;;5099512;28;24852;-60
2021/10/23 09:46:49;;;;;;;6.13;2.60;;;;;;;;;;5104124;28;24466;-60
2021/10/23 09:49:14;;;;;;;5.70;2.40;;;;;;;;;;5099000;28;24431;-60
2021/10/23 09:51:39;;;;;;;4.82;2.30;;;;;;;;;;5098362;28;24430;-61
2021/10/23 09:54:05;;;;;;;4.18;2.60;;;;;;;;;;5102419;28;24412;-60
2021/10/23 09:56:35;;;;;;;6.22;2.20;;;;;;;;;;5100798;28;24790;-60
2021/10/23 09:59:00;;;;;;;4.70;2.45;;;;;;;;;;5103960;28;24479;-60
2021/10/23 10:01:29;;;;;;;6.07;2.60;;;;;;;;;;5102082;28;24412;-59
2021/10/23 10:03:59;;;;;;;6.43;2.60;;;;;;;;;;5102439;28;24440;-58
2021/10/23 10:06:26;;;;;;;5.68;2.67;;;;;;;;;;5098215;28;24401;-60
2021/10/23 10:08:52;;;;;;;10.45;3.05;;;;;;;;;;5098627;28;24498;-60
2021/10/23 10:11:18;;;;;;;5.32;2.55;;;;;;;;;;5102084;28;24956;-59
2021/10/23 10:13:43;;;;;;;7.32;2.30;;;;;;;;;;5103885;28;24677;-60
2021/10/23 10:16:09;;;;;;;6.57;2.50;;;;;;;;;;5102221;28;24390;-60
2021/10/23 10:18:35;;;;;;;7.70;2.60;;;;;;;;;;5101709;28;24833;-61
2021/10/23 10:21:00;;;;;;;10.68;3.17;;;;;;;;;;5100296;28;24757;-61
2021/10/23 10:23:39;;;;;;;8.97;3.33;;;;;;;;;;5098302;28;24398;-62
2021/10/23 10:26:25;;;;;;;9.02;3.10;;;;;;;;;;5100227;28;24462;-60
2021/10/23 10:29:13;;;;;;;5.88;2.58;;;;;;;;;;5103451;28;24421;-61
2021/10/23 10:31:41;;;;;;;3.72;1.90;;;;;;;;;;5103584;28;24459;-61
2021/10/23 10:34:12;;;;;;;6.43;2.60;;;;;;;;;;5101715;28;24436;-61
2021/10/23 10:36:37;;;;;;;5.85;2.20;;;;;;;;;;5098134;28;25012;-61
2021/10/23 10:39:23;;;;;;;6.38;2.28;;;;;;;;;;5100150;28;24405;-61
2021/10/23 10:45:17;;;;;;;4.68;1.90;;;;;;;;;;5063723;28;24486;-60
2021/10/23 10:48:05;;;;;;;5.60;2.40;;;;;;;;;;5062911;28;24405;-59
2021/10/23 10:50:37;;;;;;;6.38;2.50;;;;;;;;;;5033434;28;24972;-58
2021/10/23 10:53:13;;;;;;;4.82;2.35;;;;;;;;;;5063463;28;24391;-62
2021/10/23 10:55:39;;;;;;;5.05;2.33;;;;;;;;;;5061637;28;24913;-60
2021/10/23 10:58:06;;;;;;;5.32;2.30;;;;;;;;;;5067122;28;24398;-60
2021/10/23 11:00:46;;;;;;;4.77;2.80;;;;;;;;;;5067234;28;24480;-60
2021/10/23 11:03:30;;;;;;;5.57;2.40;;;;;;;;;;5065143;28;24394;-60
2021/10/23 11:05:55;;;;;;;5.68;2.40;;;;;;;;;;5063150;28;24460;-60
2021/10/23 11:08:20;;;;;;;5.43;2.27;;;;;;;;;;5061621;28;24572;-60
2021/10/23 11:10:55;;;;;;;4.63;2.00;;;;;;;;;;5066617;28;24925;-59
2021/10/23 11:13:24;;;;;;;6.83;2.13;;;;;;;;;;5066854;28;24383;-61
2021/10/23 11:15:49;;;;;;;14.82;13.05;;;;;;;;;;5066720;28;24409;-60
2021/10/23 11:18:16;;;;;;;17.00;10.67;;;;;;;;;;5063149;28;24498;-59
2021/10/23 11:20:42;;;;;;;7.00;2.63;;;;;;;;;;5061262;28;24515;-60
2021/10/23 11:23:08;;;;;;;3.53;2.10;;;;;;;;;;5063022;28;24824;-60
2021/10/23 11:25:33;;;;;;;5.03;2.30;;;;;;;;;;5066216;28;24964;-60
2021/10/23 11:27:58;;;;;;;4.80;2.40;;;;;;;;;;5066424;28;24925;-60
2021/10/23 11:30:33;;;;;;;3.58;2.00;;;;;;;;;;5078902;28;24841;-61
2021/10/23 11:33:02;;;;;;;4.90;2.20;;;;;;;;;;5086699;28;24793;-61
2021/10/23 11:35:40;;;;;;;5.85;2.45;;;;;;;;;;5081161;28;24412;-61
2021/10/23 11:38:10;;;;;;;4.50;2.47;;;;;;;;;;5082203;28;24749;-60
2021/10/23 11:40:36;;;;;;;5.47;1.90;;;;;;;;;;5084430;28;24451;-61
2021/10/23 11:43:01;;;;;;;7.43;2.42;;;;;;;;;;5106418;28;24440;-60
2021/10/23 11:45:28;;;;;;;6.50;2.40;;;;;;;;;;5105047;28;24413;-60
2021/10/23 11:47:58;;;;;;;3.70;1.83;;;;;;;;;;5102903;28;24976;-60
2021/10/23 11:50:28;;;;;;;5.75;2.40;;;;;;;;;;5100929;28;25250;-60
2021/10/23 11:53:03;;;;;;;5.68;1.90;;;;;;;;;;5101209;28;24504;-60
2021/10/23 11:55:30;;;;;;;3.03;2.20;;;;;;;;;;5104719;28;24412;-60
2021/10/23 11:57:56;;;;;;;2.60;1.60;;;;;;;;;;5106541;28;24435;-60
2021/10/23 12:00:21;;;;;;;3.25;1.95;;;;;;;;;;5104635;28;24402;-59
2021/10/23 12:02:51;;;;;;;4.40;2.30;;;;;;;;;;5105729;28;24386;-60
2021/10/23 12:05:17;;;;;;;4.30;2.00;;;;;;;;;;5101018;28;24389;-60
2021/10/23 12:07:42;;;;;;;7.18;2.60;;;;;;;;;;5100694;28;25019;-59
2021/10/23 12:10:07;;;;;;;5.30;2.40;;;;;;;;;;5102424;27;25001;-60
2021/10/23 12:12:33;;;;;;;5.00;2.20;;;;;;;;;;5104220;28;25006;-60
2021/10/23 12:15:13;;;;;;;4.03;1.90;;;;;;;;;;5106564;28;25027;-59
2021/10/23 12:17:39;;;;;;;3.60;2.00;;;;;;;;;;5105969;28;24452;-61
2021/10/23 12:20:13;;;;;;;12.98;5.50;;;;;;;;;;5104271;28;24421;-60
2021/10/23 12:22:38;;;;;;;55.35;43.72;;;;;;;;;;5100248;28;24980;-60
2021/10/23 12:25:08;;;;;;;5.77;2.50;;;;;;;;;;5102192;28;24394;-59
2021/10/23 12:27:33;;;;;;;5.45;2.03;;;;;;;;;;5104367;28;24902;-59
2021/10/23 12:29:59;;;;;;;6.50;1.83;;;;;;;;;;5106036;28;24404;-59
2021/10/23 12:32:27;;;;;;;3.58;2.10;;;;;;;;;;5103920;28;24484;-60
2021/10/23 12:34:52;;;;;;;5.35;2.20;;;;;;;;;;5104059;28;24406;-59
2021/10/23 12:37:26;;;;;;;4.67;2.20;;;;;;;;;;5100162;28;24756;-59
2021/10/23 12:40:02;;;;;;;6.33;2.60;;;;;;;;;;5100298;27;24944;-60
2021/10/23 12:42:27;;;;;;;4.18;2.10;;;;;;;;;;5088728;28;24402;-60
2021/10/23 12:44:53;;;;;;;3.83;1.90;;;;;;;;;;5085617;28;24395;-59
2021/10/23 12:47:18;;;;;;;2.90;2.00;;;;;;;;;;5083299;28;24538;-60
2021/10/23 12:49:43;;;;;;;6.20;2.20;;;;;;;;;;5083153;28;24955;-59
2021/10/23 12:52:08;;;;;;;6.72;2.20;;;;;;;;;;5081483;28;24418;-59
2021/10/23 12:54:33;;;;;;;7.13;2.33;;;;;;;;;;5079737;28;24489;-59
2021/10/23 12:56:59;;;;;;;3.90;2.10;;;;;;;;;;5081372;28;24951;-59
2021/10/23 12:59:24;;;;;;;4.75;2.22;;;;;;;;;;5085124;28;24397;-60
2021/10/23 13:01:49;;;;;;;4.57;2.30;;;;;;;;;;5085135;28;24547;-59
2021/10/23 13:04:14;;;;;;;4.18;2.00;;;;;;;;;;5083218;28;24405;-59
2021/10/23 13:06:41;;;;;;;5.63;1.98;;;;;;;;;;5079226;28;24390;-60
2021/10/23 13:09:06;;;;;;;5.30;2.10;;;;;;;;;;5079234;28;24402;-58
2021/10/23 13:11:31;;;;;;;4.00;2.20;;;;;;;;;;5083202;28;24816;-59
2021/10/23 13:13:58;;;;;;;5.33;2.40;;;;;;;;;;5084191;28;24441;-59
2021/10/23 13:16:23;;;;;;;4.32;1.98;;;;;;;;;;5082956;28;24978;-59
2021/10/23 13:18:48;;;;;;;6.20;2.45;;;;;;;;;;5082672;28;24475;-59
2021/10/23 13:21:14;;;;;;;17.90;11.90;;;;;;;;;;5079501;28;25031;-59
2021/10/23 13:23:39;;;;;;;12.37;8.83;;;;;;;;;;5080937;28;24409;-60
2021/10/23 13:26:04;;;;;;;4.90;2.88;;;;;;;;;;5081195;28;24414;-58
2021/10/23 13:28:29;;;;;;;7.47;4.23;;;;;;;;;;5084644;28;24406;-59
2021/10/23 13:30:54;;;;;;;8.63;6.57;;;;;;;;;;5084325;28;24414;-60
2021/10/23 13:33:20;;;;;;;6.40;2.80;;;;;;;;;;5079006;28;24753;-58
2021/10/23 13:35:45;;;;;;;6.23;3.97;;;;;;;;;;5078591;28;24844;-59
2021/10/23 13:38:10;;;;;;;12.50;10.13;;;;;;;;;;5080729;28;24757;-59
2021/10/23 13:40:36;;;;;;;9.07;6.70;;;;;;;;;;5080645;28;24462;-59
2021/10/23 13:43:01;;;;;;;7.83;3.90;;;;;;;;;;5104512;28;24701;-59
2021/10/23 13:45:26;;;;;;;3.97;2.90;;;;;;;;;;5102764;28;24861;-60
2021/10/23 13:47:51;;;;;;;4.60;2.40;;;;;;;;;;5103934;28;24416;-60
2021/10/23 13:50:16;;;;;;;5.83;3.73;;;;;;;;;;5098961;28;24398;-60
2021/10/23 13:52:42;;;;;;;4.80;2.70;;;;;;;;;;5098736;28;24900;-58
2021/10/23 13:55:07;;;;;;;3.88;2.40;;;;;;;;;;5100822;28;24882;-58
2021/10/23 13:57:32;;;;;;;4.75;2.67;;;;;;;;;;5102300;28;24398;-58
2021/10/23 13:59:58;;;;;;;4.03;2.40;;;;;;;;;;5104424;28;24741;-59
2021/10/23 14:02:23;;;;;;;5.30;2.10;;;;;;;;;;5102410;28;24903;-59
2021/10/23 14:04:48;;;;;;;4.43;2.70;;;;;;;;;;5103907;28;24654;-60
2021/10/23 14:07:13;;;;;;;3.47;2.30;;;;;;;;;;5098519;28;24417;-60
2021/10/23 14:09:38;;;;;;;6.93;2.73;;;;;;;;;;5098232;28;24489;-60
2021/10/23 14:12:04;;;;;;;4.15;2.20;;;;;;;;;;5100486;28;24460;-60
2021/10/23 14:14:29;;;;;;;3.63;2.50;;;;;;;;;;5100534;28;24934;-58
2021/10/23 14:16:54;;;;;;;4.30;3.10;;;;;;;;;;5103976;28;24477;-58
2021/10/23 14:19:19;;;;;;;3.30;2.20;;;;;;;;;;5101817;27;24406;-59
2021/10/23 14:21:45;;;;;;;4.30;2.30;;;;;;;;;;5103580;28;24405;-59
2021/10/23 14:24:10;;;;;;;3.90;2.20;;;;;;;;;;5099267;28;24475;-59
2021/10/23 14:26:35;;;;;;;4.80;2.50;;;;;;;;;;5098382;28;24458;-58
2021/10/23 14:29:04;;;;;;;5.47;2.70;;;;;;;;;;5102036;28;24390;-58
2021/10/23 14:31:30;;;;;;;5.17;2.40;;;;;;;;;;5103806;28;24491;-57
2021/10/23 14:33:56;;;;;;;5.72;2.60;;;;;;;;;;5103355;28;24406;-57
2021/10/23 14:36:22;;;;;;;4.37;2.30;;;;;;;;;;5100143;28;24407;-57
2021/10/23 14:38:47;;;;;;;5.05;2.20;;;;;;;;;;5098185;28;24413;-58
2021/10/23 14:41:12;;;;;;;3.63;2.20;;;;;;;;;;5095556;28;24441;-58